| time (UTC) | temp F | wind direction | speed MPH | gust MPH | rain 1hr in | rain 24hr in | rain mn in | humidity % | barometer mb |
| 20260904145506 | 88 | 273 | 5.0 | 9.0 | 0.00 | 0.00 | 0.00 | 37 | 1019.8 |
| 20260904145006 | 88 | 219 | 4.0 | 9.0 | 0.00 | 0.00 | 0.00 | 37 | 1019.8 |
| 20260904144507 | 88 | 196 | 3.0 | 9.0 | 0.00 | 0.00 | 0.00 | 36 | 1019.8 |
| 20260904144006 | 88 | 187 | 4.0 | 9.0 | 0.00 | 0.00 | 0.00 | 37 | 1019.8 |
| 20260904143506 | 88 | 224 | 5.0 | 9.0 | 0.00 | 0.00 | 0.00 | 36 | 1019.8 |
| 20260904143006 | 88 | 265 | 3.0 | 9.0 | 0.00 | 0.00 | 0.00 | 38 | 1019.8 |
| 20260904142506 | 88 | 265 | 4.0 | 11.0 | 0.00 | 0.00 | 0.00 | 38 | 1020.8 |
| 20260904142006 | 88 | 267 | 4.0 | 13.0 | 0.00 | 0.00 | 0.00 | 37 | 1020.8 |
| 20260904141506 | 88 | 291 | 4.0 | 13.0 | 0.00 | 0.00 | 0.00 | 37 | 1020.8 |
| 20260904140006 | 88 | 272 | 6.0 | 13.0 | 0.00 | 0.00 | 0.00 | 36 | 1020.8 |
| 20260904135006 | 88 | 265 | 3.0 | 13.0 | 0.00 | 0.00 | 0.00 | 36 | 1020.8 |
| 20260904134506 | 88 | 272 | 4.0 | 13.0 | 0.00 | 0.00 | 0.00 | 36 | 1020.8 |
| 20260904134006 | 89 | 273 | 7.0 | 11.0 | 0.00 | 0.00 | 0.00 | 36 | 1020.8 |
| 20260904133006 | 89 | 275 | 5.0 | 9.0 | 0.00 | 0.00 | 0.00 | 36 | 1020.8 |
| 20260904132520 | 89 | 270 | 2.0 | 8.0 | 0.00 | 0.00 | 0.00 | 36 | 1020.8 |
| 20260904132017 | 89 | 263 | 5.0 | 11.0 | 0.00 | 0.00 | 0.00 | 36 | 1020.8 |
| 20260904131517 | 89 | 262 | 6.0 | 11.0 | 0.00 | 0.00 | 0.00 | 36 | 1020.8 |
| 20260904131028 | 89 | 267 | 6.0 | 11.0 | 0.00 | 0.00 | 0.00 | 36 | 1020.8 |
| 20260904130507 | 89 | 274 | 6.0 | 9.0 | 0.00 | 0.00 | 0.00 | 36 | 1020.8 |
| 20260904130006 | 90 | 282 | 5.0 | 9.0 | 0.00 | 0.00 | 0.00 | 36 | 1020.8 |
| 20260904125506 | 90 | 275 | 5.0 | 9.0 | 0.00 | 0.00 | 0.00 | 36 | 1020.8 |
| 20260904125006 | 90 | 282 | 2.0 | 8.0 | 0.00 | 0.00 | 0.00 | 36 | 1020.8 |
| 20260904124506 | 90 | 269 | 2.0 | 8.0 | 0.00 | 0.00 | 0.00 | 37 | 1020.8 |
| 20260904124006 | 90 | 235 | 3.0 | 6.0 | 0.00 | 0.00 | 0.00 | 37 | 1021.8 |
| 20260904123506 | 90 | 280 | 3.0 | 12.0 | 0.00 | 0.00 | 0.00 | 37 | 1021.8 |
| 20260904122506 | 90 | 254 | 2.0 | 9.0 | 0.00 | 0.00 | 0.00 | 36 | 1021.8 |
| 20260904120506 | 90 | 258 | 3.0 | 12.0 | 0.00 | 0.00 | 0.00 | 36 | 1021.8 |
| 20260904120006 | 89 | 268 | 5.0 | 12.0 | 0.00 | 0.00 | 0.00 | 37 | 1021.8 |
| 20260904115506 | 89 | 285 | 7.0 | 12.0 | 0.00 | 0.00 | 0.00 | 38 | 1021.8 |
| 20260904114506 | 89 | 236 | 3.0 | 5.0 | 0.00 | 0.00 | 0.00 | 38 | 1021.8 |
| 20260904113507 | 89 | 277 | 5.0 | 11.0 | 0.00 | 0.00 | 0.00 | 39 | 1022.8 |
| 20260904113006 | 89 | 279 | 5.0 | 11.0 | 0.00 | 0.00 | 0.00 | 39 | 1022.8 |
| 20260904112506 | 89 | 273 | 5.0 | 9.0 | 0.00 | 0.00 | 0.00 | 39 | 1021.8 |
| 20260904112006 | 89 | 274 | 2.0 | 9.0 | 0.00 | 0.00 | 0.00 | 40 | 1021.8 |
| 20260904111506 | 89 | 275 | 3.0 | 9.0 | 0.00 | 0.00 | 0.00 | 39 | 1021.8 |
| 20260904111006 | 89 | 265 | 5.0 | 9.0 | 0.00 | 0.00 | 0.00 | 40 | 1020.8 |
| 20260904110506 | 89 | 238 | 3.0 | 5.0 | 0.00 | 0.00 | 0.00 | 40 | 1020.8 |
| 20260904110006 | 89 | 292 | 2.0 | 8.0 | 0.00 | 0.00 | 0.00 | 39 | 1020.8 |
| 20260904105506 | 89 | 290 | 3.0 | 8.0 | 0.00 | 0.00 | 0.00 | 41 | 1021.8 |
| 20260904105006 | 89 | 282 | 3.0 | 6.0 | 0.00 | 0.00 | 0.00 | 41 | 1021.8 |
| 20260904103006 | 88 | 129 | 2.0 | 3.0 | 0.00 | 0.00 | 0.00 | 43 | 1021.8 |
| 20260904102506 | 87 | 129 | 2.0 | 3.0 | 0.00 | 0.00 | 0.00 | 42 | 1021.8 |
| 20260904102006 | 87 | 121 | 2.0 | 3.0 | 0.00 | 0.00 | 0.00 | 45 | 1021.8 |
| 20260904101506 | 87 | 185 | 2.0 | 3.0 | 0.00 | 0.00 | 0.00 | 44 | 1021.8 |
| 20260904101006 | 86 | 190 | 1.0 | 4.0 | 0.00 | 0.00 | 0.00 | 44 | 1020.8 |
| 20260904100505 | 86 | 179 | 2.0 | 4.0 | 0.00 | 0.00 | 0.00 | 43 | 1020.8 |
| 20260904100006 | 86 | 161 | 2.0 | 4.0 | 0.00 | 0.00 | 0.00 | 44 | 1020.8 |
| 20260904095505 | 85 | 151 | 2.0 | 3.0 | 0.00 | 0.00 | 0.00 | 46 | 1021.8 |
| 20260904095006 | 85 | 159 | 1.0 | 4.0 | 0.00 | 0.00 | 0.00 | 47 | 1021.8 |
| 20260904094006 | 84 | 160 | 2.0 | 4.0 | 0.00 | 0.00 | 0.00 | 48 | 1021.8 |
| 20260904093506 | 84 | 153 | 2.0 | 5.0 | 0.00 | 0.00 | 0.00 | 50 | 1021.8 |
| 20260904092506 | 83 | 100 | 2.0 | 4.0 | 0.00 | 0.00 | 0.00 | 49 | 1021.8 |
| 20260904092006 | 83 | 116 | 2.0 | 5.0 | 0.00 | 0.00 | 0.00 | 50 | 1021.8 |
| 20260904091506 | 82 | 119 | 3.0 | 6.0 | 0.00 | 0.00 | 0.00 | 51 | 1021.8 |
| 20260904091006 | 82 | 115 | 3.0 | 6.0 | 0.00 | 0.00 | 0.00 | 51 | 1021.8 |
| 20260904090506 | 82 | 112 | 3.0 | 6.0 | 0.00 | 0.00 | 0.00 | 52 | 1021.8 |
| 20260904090006 | 81 | 115 | 2.0 | 6.0 | 0.00 | 0.00 | 0.00 | 52 | 1021.8 |
| 20260904085506 | 81 | 132 | 3.0 | 6.0 | 0.00 | 0.00 | 0.00 | 51 | 1021.8 |
| 20260904085006 | 80 | 143 | 3.0 | 5.0 | 0.00 | 0.00 | 0.00 | 54 | 1021.8 |
| 20260904084506 | 80 | 148 | 4.0 | 6.0 | 0.00 | 0.00 | 0.00 | 55 | 1021.8 |
| 20260904084006 | 80 | 148 | 4.0 | 6.0 | 0.00 | 0.00 | 0.00 | 54 | 1021.8 |
| 20260904083006 | 79 | 118 | 4.0 | 6.0 | 0.00 | 0.00 | 0.00 | 55 | 1021.8 |
| 20260904082506 | 78 | 105 | 3.0 | 5.0 | 0.00 | 0.00 | 0.00 | 56 | 1021.8 |
| 20260904081506 | 77 | 110 | 3.0 | 5.0 | 0.00 | 0.00 | 0.00 | 57 | 1021.8 |
| 20260904081006 | 77 | 113 | 3.0 | 6.0 | 0.00 | 0.00 | 0.00 | 58 | 1022.8 |
| 20260904080506 | 76 | 108 | 3.0 | 6.0 | 0.00 | 0.00 | 0.00 | 58 | 1022.8 |
| 20260904080006 | 76 | 122 | 2.0 | 6.0 | 0.00 | 0.00 | 0.00 | 60 | 1022.8 |
| 20260904075506 | 75 | 144 | 2.0 | 6.0 | 0.00 | 0.00 | 0.00 | 61 | 1022.8 |
| 20260904075006 | 75 | 138 | 3.0 | 4.0 | 0.00 | 0.00 | 0.00 | 62 | 1022.8 |
| 20260904074506 | 74 | 132 | 2.0 | 4.0 | 0.00 | 0.00 | 0.00 | 62 | 1022.8 |
| 20260904074006 | 74 | 90 | 2.0 | 4.0 | 0.00 | 0.00 | 0.00 | 64 | 1021.8 |
| 20260904073506 | 73 | 99 | 3.0 | 6.0 | 0.00 | 0.00 | 0.00 | 65 | 1021.8 |
| 20260904073006 | 73 | 128 | 3.0 | 7.0 | 0.00 | 0.00 | 0.00 | 65 | 1021.8 |
| 20260904072506 | 72 | 116 | 4.0 | 7.0 | 0.00 | 0.00 | 0.00 | 67 | 1022.8 |
| 20260904072006 | 72 | 87 | 3.0 | 7.0 | 0.00 | 0.00 | 0.00 | 68 | 1022.8 |
| 20260904071506 | 71 | 101 | 2.0 | 7.0 | 0.00 | 0.00 | 0.00 | 70 | 1022.8 |
| 20260904071006 | 71 | 118 | 4.0 | 7.0 | 0.00 | 0.00 | 0.00 | 72 | 1022.8 |
| 20260904070506 | 70 | 133 | 3.0 | 6.0 | 0.00 | 0.00 | 0.00 | 73 | 1022.8 |
| 20260904065506 | 69 | 112 | 5.0 | 7.0 | 0.00 | 0.00 | 0.00 | 77 | 1021.8 |
| 20260904065006 | 68 | 72 | 4.0 | 6.0 | 0.00 | 0.00 | 0.00 | 77 | 1021.8 |
| 20260904064506 | 68 | 58 | 3.0 | 4.0 | 0.00 | 0.00 | 0.00 | 79 | 1021.8 |
| 20260904064006 | 67 | 111 | 2.0 | 4.0 | 0.00 | 0.00 | 0.00 | 82 | 1022.8 |
| 20260904063506 | 67 | 128 | 2.0 | 4.0 | 0.00 | 0.00 | 0.00 | 82 | 1022.8 |
| 20260904063006 | 66 | 138 | 2.0 | 4.0 | 0.00 | 0.00 | 0.00 | 84 | 1022.8 |
| 20260904062505 | 66 | 157 | 1.0 | 4.0 | 0.00 | 0.00 | 0.00 | 85 | 1022.8 |
| 20260904062006 | 65 | 148 | 3.0 | 4.0 | 0.00 | 0.00 | 0.00 | 86 | 1022.8 |
| 20260904061006 | 65 | 126 | 0.0 | 3.0 | 0.00 | 0.00 | 0.00 | 86 | 1021.8 |
| 20260904060505 | 64 | 327 | 0.0 | 2.0 | 0.00 | 0.00 | 0.00 | 86 | 1021.8 |
| 20260904060006 | 64 | 264 | 0.0 | 2.0 | 0.00 | 0.00 | 0.00 | 86 | 1021.8 |
| 20260904055506 | 64 | 156 | 0.0 | 2.0 | 0.00 | 0.00 | 0.00 | 86 | 1021.8 |
| 20260904055006 | 64 | 135 | 0.0 | 2.0 | 0.00 | 0.00 | 0.00 | 86 | 1021.8 |
| 20260904054506 | 64 | 145 | 0.0 | 3.0 | 0.00 | 0.00 | 0.00 | 86 | 1021.8 |
| 20260904054006 | 64 | 163 | 1.0 | 3.0 | 0.00 | 0.00 | 0.00 | 87 | 1021.8 |
| 20260904053506 | 63 | 322 | 0.0 | 3.0 | 0.00 | 0.00 | 0.00 | 86 | 1021.8 |
| 20260904053006 | 63 | 155 | 2.0 | 3.0 | 0.00 | 0.00 | 0.00 | 86 | 1021.8 |
| 20260904052005 | 63 | 283 | 2.0 | 2.0 | 0.00 | 0.00 | 0.00 | 85 | 1021.8 |
| 20260904051506 | 63 | 251 | 1.0 | 2.0 | 0.00 | 0.00 | 0.00 | 85 | 1021.8 |
| 20260904050506 | 63 | 240 | 2.0 | 2.0 | 0.00 | 0.00 | 0.00 | 85 | 1020.8 |
| 20260904050006 | 63 | 248 | 0.0 | 2.0 | 0.00 | 0.00 | 0.00 | 85 | 1020.8 |
| 20260904045506 | 63 | 291 | 1.0 | 3.0 | 0.00 | 0.00 | 0.00 | 85 | 1021.8 |
| 20260904045006 | 63 | 249 | 2.0 | 3.0 | 0.00 | 0.00 | 0.00 | 85 | 1021.8 |
| 20260904044006 | 63 | 3 | 2.0 | 3.0 | 0.00 | 0.00 | 0.00 | 86 | 1021.8 |
| 20260904043506 | 63 | 135 | 2.0 | 3.0 | 0.00 | 0.00 | 0.00 | 85 | 1021.8 |
| 20260904043005 | 63 | 136 | 0.0 | 2.0 | 0.00 | 0.00 | 0.00 | 85 | 1021.8 |
| 20260904042506 | 63 | 237 | 0.0 | 2.0 | 0.00 | 0.00 | 0.00 | 85 | 1021.8 |
| 20260904041006 | 63 | 337 | 0.0 | 4.0 | 0.00 | 0.00 | 0.00 | 85 | 1021.8 |
| 20260904040506 | 63 | 82 | 1.0 | 4.0 | 0.00 | 0.00 | 0.00 | 84 | 1021.8 |
| 20260904035506 | 63 | 5 | 0.0 | 2.0 | 0.00 | 0.00 | 0.00 | 85 | 1020.8 |
| 20260904035005 | 63 | 63 | 0.0 | 2.0 | 0.00 | 0.00 | 0.00 | 84 | 1020.8 |
| 20260904034506 | 63 | 90 | 0.0 | 2.0 | 0.00 | 0.00 | 0.00 | 84 | 1020.8 |
| 20260904033506 | 63 | 0 | 0.0 | 0.0 | 0.00 | 0.00 | 0.00 | 84 | 1020.8 |
| 20260904033006 | 63 | 262 | 0.0 | 2.0 | 0.00 | 0.00 | 0.00 | 84 | 1020.8 |
| 20260904032006 | 63 | 268 | 0.0 | 2.0 | 0.00 | 0.00 | 0.00 | 84 | 1021.8 |
| 20260904031506 | 64 | 267 | 1.0 | 2.0 | 0.00 | 0.00 | 0.00 | 82 | 1021.8 |
| 20260904030505 | 64 | 203 | 0.0 | 2.0 | 0.00 | 0.00 | 0.00 | 82 | 1021.8 |
| 20260904030006 | 64 | 238 | 0.0 | 2.0 | 0.00 | 0.00 | 0.00 | 84 | 1021.8 |
| 20260904025506 | 64 | 298 | 1.0 | 2.0 | 0.00 | 0.00 | 0.00 | 84 | 1021.8 |
| 20260904025006 | 64 | 346 | 1.0 | 2.0 | 0.00 | 0.00 | 0.00 | 82 | 1021.8 |
| 20260904024505 | 64 | 89 | 0.0 | 2.0 | 0.00 | 0.00 | 0.00 | 82 | 1021.8 |
| 20260904024006 | 64 | 158 | 0.0 | 2.0 | 0.00 | 0.00 | 0.00 | 82 | 1020.8 |
| 20260904023505 | 64 | 293 | 1.0 | 2.0 | 0.00 | 0.00 | 0.00 | 82 | 1020.8 |
| 20260904023006 | 64 | 9 | 0.0 | 2.0 | 0.00 | 0.00 | 0.00 | 82 | 1020.8 |
| 20260904022505 | 64 | 27 | 0.0 | 2.0 | 0.00 | 0.00 | 0.00 | 82 | 1021.8 |
| 20260904022006 | 64 | 24 | 1.0 | 3.0 | 0.00 | 0.00 | 0.00 | 81 | 1021.8 |
| 20260904021505 | 64 | 22 | 1.0 | 3.0 | 0.00 | 0.00 | 0.00 | 81 | 1021.8 |
| 20260904021006 | 64 | 182 | 0.0 | 2.0 | 0.00 | 0.00 | 0.00 | 81 | 1020.8 |
| 20260904020505 | 64 | 215 | 0.0 | 2.0 | 0.00 | 0.00 | 0.00 | 82 | 1020.8 |
| 20260904015506 | 64 | 258 | 1.0 | 3.0 | 0.00 | 0.00 | 0.00 | 81 | 1021.8 |
| 20260904015006 | 65 | 308 | 1.0 | 3.0 | 0.00 | 0.00 | 0.00 | 81 | 1021.8 |
| 20260904014005 | 65 | 87 | 0.0 | 2.0 | 0.00 | 0.00 | 0.00 | 81 | 1020.8 |
| 20260904013506 | 65 | 45 | 0.0 | 3.0 | 0.00 | 0.00 | 0.00 | 81 | 1020.8 |
| 20260904013005 | 64 | 55 | 2.0 | 4.0 | 0.00 | 0.00 | 0.00 | 81 | 1020.8 |
| 20260904012006 | 64 | 157 | 1.0 | 3.0 | 0.00 | 0.00 | 0.00 | 81 | 1021.8 |
| 20260904011505 | 64 | 229 | 0.0 | 3.0 | 0.00 | 0.00 | 0.00 | 81 | 1021.8 |
| 20260904011006 | 64 | 307 | 2.0 | 3.0 | 0.00 | 0.00 | 0.00 | 82 | 1021.8 |
| 20260904010505 | 64 | 326 | 1.0 | 2.0 | 0.00 | 0.00 | 0.00 | 80 | 1021.8 |
| 20260904010006 | 64 | 337 | 0.0 | 2.0 | 0.00 | 0.00 | 0.00 | 80 | 1021.8 |
| 20260904005505 | 65 | 340 | 0.0 | 2.0 | 0.00 | 0.00 | 0.00 | 80 | 1021.8 |
| 20260904005006 | 65 | 2 | 1.0 | 2.0 | 0.00 | 0.00 | 0.00 | 80 | 1021.8 |
| 20260904004506 | 65 | 13 | 1.0 | 2.0 | 0.00 | 0.00 | 0.00 | 80 | 1021.8 |
| 20260904004005 | 65 | 32 | 0.0 | 2.0 | 0.00 | 0.00 | 0.00 | 80 | 1021.8 |
| 20260904003506 | 65 | 78 | 1.0 | 2.0 | 0.00 | 0.00 | 0.00 | 79 | 1021.8 |
| 20260904003005 | 65 | 112 | 1.0 | 2.0 | 0.00 | 0.00 | 0.00 | 79 | 1021.8 |
| 20260904002506 | 65 | 0 | 0.0 | 0.0 | 0.00 | 0.00 | 0.00 | 80 | 1021.8 |
| 20260904002005 | 65 | 112 | 0.0 | 2.0 | 0.00 | 0.00 | 0.00 | 79 | 1021.8 |
| 20260904001506 | 65 | 112 | 0.0 | 2.0 | 0.00 | 0.00 | 0.00 | 79 | 1021.8 |
| 20260904001005 | 65 | 112 | 0.0 | 1.0 | 0.00 | 0.00 | 0.00 | 79 | 1021.8 |
| 20260904000506 | 65 | 112 | 0.0 | 2.0 | 0.00 | 0.00 | 0.00 | 78 | 1021.8 |
| 20260904000006 | 65 | 109 | 1.0 | 2.0 | 0.00 | 0.00 | 0.00 | 78 | 1021.8 |
| 20260903235505 | 65 | 90 | 0.0 | 1.0 | 0.00 | 0.00 | 0.00 | 78 | 1021.8 |
| 20260903235006 | 65 | 0 | 0.0 | 0.0 | 0.00 | 0.00 | 0.00 | 78 | 1021.8 |
| 20260903234006 | 66 | 90 | 0.0 | 1.0 | 0.00 | 0.00 | 0.00 | 78 | 1021.8 |
| 20260903233505 | 66 | 90 | 0.0 | 2.0 | 0.00 | 0.00 | 0.00 | 78 | 1021.8 |
| 20260903233005 | 66 | 88 | 0.0 | 3.0 | 0.00 | 0.00 | 0.00 | 78 | 1021.8 |
| 20260903232506 | 66 | 69 | 2.0 | 3.0 | 0.00 | 0.00 | 0.00 | 77 | 1020.8 |
| 20260903231006 | 66 | 161 | 0.0 | 2.0 | 0.00 | 0.00 | 0.00 | 77 | 1021.8 |
| 20260903230007 | 66 | 270 | 0.0 | 1.0 | 0.00 | 0.00 | 0.00 | 77 | 1021.8 |
| 20260903225506 | 66 | 0 | 0.0 | 0.0 | 0.00 | 0.00 | 0.00 | 76 | 1021.8 |
| 20260903225006 | 66 | 225 | 0.0 | 2.0 | 0.00 | 0.00 | 0.00 | 76 | 1021.8 |
| 20260903224506 | 66 | 225 | 0.0 | 2.0 | 0.00 | 0.00 | 0.00 | 76 | 1021.8 |
| 20260903223506 | 66 | 106 | 1.0 | 2.0 | 0.00 | 0.00 | 0.00 | 76 | 1021.8 |
| 20260903223005 | 66 | 69 | 0.0 | 2.0 | 0.00 | 0.00 | 0.00 | 75 | 1021.8 |
| 20260903222506 | 66 | 91 | 1.0 | 3.0 | 0.00 | 0.00 | 0.00 | 75 | 1020.8 |
| 20260903222006 | 66 | 95 | 2.0 | 3.0 | 0.00 | 0.00 | 0.00 | 76 | 1020.8 |
| 20260903221005 | 66 | 112 | 0.0 | 1.0 | 0.00 | 0.00 | 0.00 | 75 | 1021.8 |
| 20260903220506 | 66 | 112 | 0.0 | 1.0 | 0.00 | 0.00 | 0.00 | 75 | 1021.8 |
| 20260903220012 | 66 | 0 | 0.0 | 0.0 | 0.00 | 0.00 | 0.00 | 75 | 1021.8 |
| 20260903215505 | 66 | 0 | 0.0 | 0.0 | 0.00 | 0.00 | 0.00 | 74 | 1021.8 |
| 20260903215006 | 66 | 111 | 0.0 | 2.0 | 0.00 | 0.00 | 0.00 | 74 | 1021.8 |
| 20260903214006 | 66 | 0 | 0.0 | 0.0 | 0.00 | 0.00 | 0.00 | 74 | 1021.8 |
| 20260903213505 | 66 | 23 | 0.0 | 1.0 | 0.00 | 0.00 | 0.00 | 73 | 1021.8 |
| 20260903213006 | 67 | 23 | 0.0 | 2.0 | 0.00 | 0.00 | 0.00 | 73 | 1021.8 |
| 20260903212506 | 67 | 23 | 0.0 | 2.0 | 0.00 | 0.00 | 0.00 | 72 | 1020.8 |
| 20260903212006 | 67 | 26 | 1.0 | 2.0 | 0.00 | 0.00 | 0.00 | 72 | 1020.8 |
| 20260903211505 | 67 | 41 | 1.0 | 2.0 | 0.00 | 0.00 | 0.00 | 72 | 1020.8 |
| 20260903211006 | 67 | 77 | 1.0 | 2.0 | 0.00 | 0.00 | 0.00 | 72 | 1021.8 |
| 20260903210505 | 67 | 83 | 1.0 | 2.0 | 0.00 | 0.00 | 0.00 | 71 | 1021.8 |
| 20260903205506 | 67 | 61 | 0.0 | 2.0 | 0.00 | 0.00 | 0.00 | 71 | 1021.8 |
| 20260903204006 | 68 | 51 | 0.0 | 2.0 | 0.00 | 0.00 | 0.00 | 69 | 1021.8 |
| 20260903203505 | 68 | 67 | 2.0 | 2.0 | 0.00 | 0.00 | 0.00 | 68 | 1021.8 |
| 20260903203006 | 68 | 68 | 1.0 | 2.0 | 0.00 | 0.00 | 0.00 | 69 | 1021.8 |
| 20260903202505 | 68 | 68 | 1.0 | 2.0 | 0.00 | 0.00 | 0.00 | 69 | 1021.8 |
| 20260903201506 | 69 | 99 | 2.0 | 2.0 | 0.00 | 0.00 | 0.00 | 67 | 1021.8 |
| 20260903201005 | 69 | 77 | 1.0 | 2.0 | 0.00 | 0.00 | 0.00 | 67 | 1021.8 |
| 20260903200506 | 69 | 90 | 1.0 | 3.0 | 0.00 | 0.00 | 0.00 | 67 | 1021.8 |
| 20260903200005 | 69 | 139 | 2.0 | 3.0 | 0.00 | 0.00 | 0.00 | 67 | 1021.8 |
| 20260903195505 | 69 | 151 | 2.0 | 2.0 | 0.00 | 0.00 | 0.00 | 68 | 1021.8 |
| 20260903194505 | 70 | 44 | 0.0 | 2.0 | 0.00 | 0.00 | 0.00 | 65 | 1021.8 |
| 20260903193506 | 70 | 58 | 0.0 | 2.0 | 0.00 | 0.00 | 0.00 | 64 | 1021.8 |
| 20260903193005 | 70 | 52 | 1.0 | 2.0 | 0.00 | 0.00 | 0.00 | 65 | 1021.8 |
| 20260903192506 | 70 | 65 | 0.0 | 2.0 | 0.00 | 0.00 | 0.00 | 63 | 1021.8 |
| 20260903191506 | 71 | 80 | 2.0 | 3.0 | 0.00 | 0.00 | 0.00 | 63 | 1021.8 |
| 20260903191006 | 71 | 90 | 2.0 | 2.0 | 0.00 | 0.00 | 0.00 | 63 | 1021.8 |
| 20260903190505 | 71 | 90 | 1.0 | 2.0 | 0.00 | 0.00 | 0.00 | 62 | 1021.8 |
| 20260903190006 | 72 | 78 | 0.0 | 3.0 | 0.00 | 0.00 | 0.00 | 61 | 1021.8 |
| 20260903185005 | 72 | 81 | 2.0 | 4.0 | 0.00 | 0.00 | 0.00 | 60 | 1020.8 |
| 20260903184005 | 72 | 84 | 2.0 | 4.0 | 0.00 | 0.00 | 0.00 | 60 | 1020.8 |
| 20260903183505 | 72 | 101 | 2.0 | 4.0 | 0.00 | 0.00 | 0.00 | 59 | 1020.8 |
| 20260903183005 | 73 | 99 | 0.0 | 4.0 | 0.00 | 0.00 | 0.00 | 60 | 1020.8 |
| 20260903182007 | 73 | 91 | 3.0 | 5.0 | 0.00 | 0.00 | 0.00 | 57 | 1020.8 |
| 20260903181505 | 74 | 71 | 2.0 | 5.0 | 0.00 | 0.00 | 0.00 | 57 | 1020.8 |
| 20260903181006 | 74 | 86 | 2.0 | 5.0 | 0.00 | 0.00 | 0.00 | 57 | 1020.8 |
| 20260903180006 | 75 | 87 | 1.0 | 5.0 | 0.00 | 0.00 | 0.00 | 55 | 1020.8 |
| 20260903175005 | 76 | 81 | 2.0 | 4.0 | 0.00 | 0.00 | 0.00 | 54 | 1020.8 |
| 20260903174506 | 76 | 133 | 0.0 | 4.0 | 0.00 | 0.00 | 0.00 | 54 | 1020.8 |
| 20260903174005 | 76 | 40 | 2.0 | 3.0 | 0.00 | 0.00 | 0.00 | 53 | 1019.8 |
| 20260903173506 | 77 | 103 | 2.0 | 4.0 | 0.00 | 0.00 | 0.00 | 51 | 1019.8 |
| 20260903173005 | 77 | 78 | 2.0 | 4.0 | 0.00 | 0.00 | 0.00 | 50 | 1019.8 |
| 20260903172506 | 78 | 71 | 3.0 | 4.0 | 0.00 | 0.00 | 0.00 | 50 | 1020.8 |
| 20260903172005 | 78 | 82 | 2.0 | 3.0 | 0.00 | 0.00 | 0.00 | 50 | 1020.8 |
| 20260903171006 | 80 | 270 | 0.0 | 2.0 | 0.00 | 0.00 | 0.00 | 49 | 1019.8 |
| 20260903170505 | 80 | 261 | 0.0 | 2.0 | 0.00 | 0.00 | 0.00 | 48 | 1019.8 |
| 20260903170005 | 80 | 279 | 2.0 | 2.0 | 0.00 | 0.00 | 0.00 | 48 | 1019.8 |
| 20260903165506 | 81 | 355 | 0.0 | 2.0 | 0.00 | 0.00 | 0.00 | 47 | 1019.8 |
| 20260903165005 | 81 | 46 | 0.0 | 2.0 | 0.00 | 0.00 | 0.00 | 47 | 1019.8 |
| 20260903164505 | 81 | 45 | 1.0 | 2.0 | 0.00 | 0.00 | 0.00 | 46 | 1019.8 |
| 20260903164006 | 82 | 18 | 0.0 | 2.0 | 0.00 | 0.00 | 0.00 | 46 | 1019.8 |
| 20260903163505 | 82 | 4 | 0.0 | 2.0 | 0.00 | 0.00 | 0.00 | 46 | 1019.8 |
| 20260903163005 | 82 | 4 | 1.0 | 3.0 | 0.00 | 0.00 | 0.00 | 45 | 1019.8 |
| 20260903162506 | 82 | 1 | 1.0 | 3.0 | 0.00 | 0.00 | 0.00 | 44 | 1019.8 |
| 20260903162005 | 83 | 41 | 0.0 | 2.0 | 0.00 | 0.00 | 0.00 | 44 | 1019.8 |
| 20260903161506 | 83 | 51 | 2.0 | 3.0 | 0.00 | 0.00 | 0.00 | 44 | 1019.8 |
| 20260903161005 | 83 | 51 | 1.0 | 3.0 | 0.00 | 0.00 | 0.00 | 43 | 1018.8 |
| 20260903160505 | 83 | 49 | 2.0 | 2.0 | 0.00 | 0.00 | 0.00 | 42 | 1018.8 |
| 20260903155505 | 84 | 145 | 1.0 | 2.0 | 0.00 | 0.00 | 0.00 | 43 | 1018.8 |
| 20260903154005 | 86 | 198 | 2.0 | 2.0 | 0.00 | 0.00 | 0.00 | 37 | 1019.8 |
| 20260903153505 | 86 | 197 | 0.0 | 2.0 | 0.00 | 0.00 | 0.00 | 36 | 1019.8 |
| 20260903153006 | 87 | 204 | 2.0 | 3.0 | 0.00 | 0.00 | 0.00 | 35 | 1019.8 |
| 20260903152505 | 87 | 231 | 2.0 | 5.0 | 0.00 | 0.00 | 0.00 | 35 | 1019.8 |
| 20260903152005 | 87 | 240 | 2.0 | 5.0 | 0.00 | 0.00 | 0.00 | 34 | 1019.8 |
| 20260903151505 | 88 | 239 | 2.0 | 4.0 | 0.00 | 0.00 | 0.00 | 34 | 1019.8 |
| 20260903151005 | 88 | 253 | 2.0 | 4.0 | 0.00 | 0.00 | 0.00 | 33 | 1019.8 |
| 20260903150505 | 88 | 246 | 2.0 | 5.0 | 0.00 | 0.00 | 0.00 | 33 | 1019.8 |
| 20260903150005 | 88 | 238 | 3.0 | 5.0 | 0.00 | 0.00 | 0.00 | 32 | 1019.8 |